Time;durP1;ratioP1;P1;durP2;ratioP2;P2;SDS_P1;SDS_P2;PMS_P1;PMS_P2;Temp;Humidity;BMP_temperature;BMP_pressure;BME280_temperature;BME280_humidity;BME280_pressure;Samples;Min_cycle;Max_cycle;Signal;HPM_P1;HPM_P2
2021/08/01 00:00:18;;;;;;;7.93;4.00;;;;;;;;;;6235001;23;20641;-89
2021/08/01 00:03:23;;;;;;;6.68;4.00;;;;;;;;;;6234773;23;20263;-87
2021/08/01 00:06:29;;;;;;;14.55;8.48;;;;;;;;;;6252001;23;20181;-87
2021/08/01 00:09:34;;;;;;;12.73;5.20;;;;;;;;;;6234933;23;20166;-89
2021/08/01 00:12:40;;;;;;;9.40;4.90;;;;;;;;;;6251754;23;20170;-88
2021/08/01 00:15:46;;;;;;;9.70;4.30;;;;;;;;;;6234789;23;20254;-89
2021/08/01 00:18:52;;;;;;;9.13;3.90;;;;;;;;;;6252101;23;20220;-87
2021/08/01 00:21:57;;;;;;;7.00;4.05;;;;;;;;;;6252187;23;20198;-87
2021/08/01 00:25:03;;;;;;;11.57;4.10;;;;;;;;;;6234977;23;20178;-89
2021/08/01 00:28:08;;;;;;;8.32;4.10;;;;;;;;;;6250986;23;20268;-88
2021/08/01 00:31:15;;;;;;;6.78;4.10;;;;;;;;;;6234268;23;20159;-88
2021/08/01 00:34:19;;;;;;;6.95;4.28;;;;;;;;;;6252542;23;20174;-89
2021/08/01 00:37:24;;;;;;;6.68;4.00;;;;;;;;;;6235537;22;20309;-88
2021/08/01 00:40:29;;;;;;;7.72;4.25;;;;;;;;;;6252755;23;20170;-91
2021/08/01 00:43:34;;;;;;;7.38;4.50;;;;;;;;;;6252360;23;20173;-86
2021/08/01 00:46:43;;;;;;;6.93;4.20;;;;;;;;;;6251508;23;20415;-87
2021/08/01 00:49:49;;;;;;;6.18;3.95;;;;;;;;;;6252783;23;20171;-87
2021/08/01 00:52:55;;;;;;;7.85;3.65;;;;;;;;;;6251346;23;20190;-87
2021/08/01 00:56:00;;;;;;;6.15;4.32;;;;;;;;;;6252843;23;20661;-89
2021/08/01 00:59:05;;;;;;;7.28;4.22;;;;;;;;;;6250367;23;20669;-88
2021/08/01 01:02:15;;;;;;;11.63;3.97;;;;;;;;;;6232443;23;20248;-88
2021/08/01 01:05:23;;;;;;;7.57;4.28;;;;;;;;;;6251772;22;20166;-87
2021/08/01 01:08:31;;;;;;;6.93;4.30;;;;;;;;;;6234618;23;20417;-89
2021/08/01 01:11:58;;;;;;;9.77;4.18;;;;;;;;;;6252311;23;20166;-88
2021/08/01 01:15:04;;;;;;;6.68;4.47;;;;;;;;;;6251234;23;20601;-89
2021/08/01 01:18:15;;;;;;;6.43;4.43;;;;;;;;;;6253201;23;20159;-87
2021/08/01 01:21:41;;;;;;;10.18;5.03;;;;;;;;;;6236254;23;20186;-88
2021/08/01 01:24:47;;;;;;;8.05;4.88;;;;;;;;;;6254712;23;20166;-88
2021/08/01 01:28:12;;;;;;;11.63;5.65;;;;;;;;;;6253259;23;20256;-87
2021/08/01 01:31:24;;;;;;;12.25;5.57;;;;;;;;;;6237878;22;20185;-88
2021/08/01 01:34:34;;;;;;;11.20;5.38;;;;;;;;;;6256655;22;20652;-89
2021/08/01 01:37:42;;;;;;;14.25;5.72;;;;;;;;;;6239312;23;20166;-89
2021/08/01 01:40:54;;;;;;;12.15;5.70;;;;;;;;;;6239722;23;20154;-90
2021/08/01 01:44:23;;;;;;;13.75;5.80;;;;;;;;;;6237872;23;20189;-90
2021/08/01 01:47:29;;;;;;;12.02;6.05;;;;;;;;;;6254200;23;20190;-89
2021/08/01 01:50:34;;;;;;;10.63;6.47;;;;;;;;;;6256145;22;20162;-88
2021/08/01 01:53:40;;;;;;;13.98;6.72;;;;;;;;;;6257827;22;20178;-89
2021/08/01 01:56:48;;;;;;;11.80;6.72;;;;;;;;;;6239692;23;20202;-89
2021/08/01 01:59:55;;;;;;;12.38;6.47;;;;;;;;;;6236599;22;20167;-89
2021/08/01 02:03:01;;;;;;;13.05;7.35;;;;;;;;;;6256501;22;20444;-88
2021/08/01 02:06:25;;;;;;;11.43;6.50;;;;;;;;;;6256581;22;20162;-88
2021/08/01 02:09:46;;;;;;;12.23;6.70;;;;;;;;;;6255798;22;20530;-89
2021/08/01 02:13:02;;;;;;;15.52;6.97;;;;;;;;;;6254675;23;20261;-89
2021/08/01 02:16:15;;;;;;;14.38;6.90;;;;;;;;;;6255816;22;20155;-89
2021/08/01 02:19:23;;;;;;;14.25;7.22;;;;;;;;;;6236566;23;20171;-89
2021/08/01 02:22:32;;;;;;;16.65;7.30;;;;;;;;;;6255495;22;20238;-88
2021/08/01 02:25:39;;;;;;;14.90;7.90;;;;;;;;;;6255940;23;20185;-89
2021/08/01 02:28:46;;;;;;;10.02;6.13;;;;;;;;;;6255735;23;20210;-87
2021/08/01 02:31:51;;;;;;;17.63;8.40;;;;;;;;;;6254494;22;20170;-90
2021/08/01 02:35:08;;;;;;;15.43;8.32;;;;;;;;;;6255654;22;20661;-89
2021/08/01 02:38:14;;;;;;;12.90;6.55;;;;;;;;;;6256361;23;20781;-89
2021/08/01 02:41:24;;;;;;;14.63;6.57;;;;;;;;;;6255718;23;20162;-88
2021/08/01 02:44:33;;;;;;;13.23;6.75;;;;;;;;;;6254265;23;20266;-89
2021/08/01 02:47:38;;;;;;;11.40;7.15;;;;;;;;;;6253216;23;20256;-88
2021/08/01 02:50:47;;;;;;;18.23;7.75;;;;;;;;;;6255019;23;20214;-88
2021/08/01 02:53:54;;;;;;;13.48;6.75;;;;;;;;;;6236790;23;20170;-90
2021/08/01 02:57:02;;;;;;;16.25;6.28;;;;;;;;;;6255763;23;20173;-89
2021/08/01 03:00:08;;;;;;;10.13;6.80;;;;;;;;;;6254139;23;20289;-88
2021/08/01 03:03:13;;;;;;;12.88;6.70;;;;;;;;;;6253711;23;20193;-88
2021/08/01 03:06:19;;;;;;;14.02;6.50;;;;;;;;;;6253591;23;20151;-89
2021/08/01 03:09:24;;;;;;;13.18;7.25;;;;;;;;;;6254961;23;20171;-89
2021/08/01 03:12:32;;;;;;;10.82;6.40;;;;;;;;;;6254285;23;20172;-88
2021/08/01 03:15:37;;;;;;;11.13;6.20;;;;;;;;;;6220085;23;20162;-89
2021/08/01 03:18:44;;;;;;;11.40;6.25;;;;;;;;;;6253551;23;20198;-88
2021/08/01 03:21:50;;;;;;;12.35;6.60;;;;;;;;;;6236113;23;20171;-89
2021/08/01 03:25:03;;;;;;;10.52;6.22;;;;;;;;;;6255182;23;20193;-89
2021/08/01 03:28:11;;;;;;;10.85;6.15;;;;;;;;;;6235762;23;20166;-88
2021/08/01 03:31:16;;;;;;;9.35;6.07;;;;;;;;;;6254631;22;20162;-88
2021/08/01 03:34:25;;;;;;;11.95;6.05;;;;;;;;;;6236499;23;20194;-89
2021/08/01 03:37:31;;;;;;;14.00;6.50;;;;;;;;;;6234583;23;20190;-89
2021/08/01 03:40:55;;;;;;;10.05;6.03;;;;;;;;;;6253593;23;20548;-87
2021/08/01 03:44:03;;;;;;;10.68;6.00;;;;;;;;;;6238499;23;20171;-88
2021/08/01 03:47:08;;;;;;;11.57;6.63;;;;;;;;;;6255985;23;20501;-88
2021/08/01 03:50:13;;;;;;;11.77;5.88;;;;;;;;;;6257066;23;20161;-89
2021/08/01 03:53:19;;;;;;;9.10;6.30;;;;;;;;;;6255702;23;20283;-88
2021/08/01 03:56:24;;;;;;;9.77;6.18;;;;;;;;;;6237912;23;20239;-89
2021/08/01 03:59:34;;;;;;;10.63;6.50;;;;;;;;;;6254975;23;20198;-89
2021/08/01 04:06:52;;;;;;;12.52;6.18;;;;;;;;;;6257010;22;20197;-87
2021/08/01 04:09:57;;;;;;;9.38;5.82;;;;;;;;;;6255570;23;20146;-89
2021/08/01 04:13:03;;;;;;;7.90;5.55;;;;;;;;;;6255380;22;20166;-89
2021/08/01 04:16:10;;;;;;;7.80;5.57;;;;;;;;;;6238470;23;20192;-89
2021/08/01 04:19:15;;;;;;;10.60;5.90;;;;;;;;;;6255781;23;20191;-87
2021/08/01 04:22:20;;;;;;;9.05;5.75;;;;;;;;;;6254998;22;20166;-89
2021/08/01 04:25:26;;;;;;;7.85;5.43;;;;;;;;;;6254692;22;20190;-88
2021/08/01 04:28:31;;;;;;;10.70;5.45;;;;;;;;;;6253844;22;20241;-89
2021/08/01 04:31:38;;;;;;;8.45;5.60;;;;;;;;;;6254510;22;20163;-88
2021/08/01 04:34:43;;;;;;;9.48;5.97;;;;;;;;;;6254941;23;20297;-87
2021/08/01 04:37:52;;;;;;;13.55;5.97;;;;;;;;;;6253126;23;20190;-89
2021/08/01 04:40:58;;;;;;;12.07;6.85;;;;;;;;;;6256478;22;20333;-89
2021/08/01 04:44:03;;;;;;;8.93;5.72;;;;;;;;;;6238997;22;20211;-88
2021/08/01 04:47:12;;;;;;;10.32;5.68;;;;;;;;;;6239289;22;20510;-89
2021/08/01 04:50:18;;;;;;;10.20;5.40;;;;;;;;;;6240617;23;20249;-88
2021/08/01 04:53:23;;;;;;;9.63;5.68;;;;;;;;;;6240296;22;20206;-89
2021/08/01 04:56:28;;;;;;;12.70;5.57;;;;;;;;;;6256127;23;20161;-87
2021/08/01 04:59:35;;;;;;;8.90;5.25;;;;;;;;;;6240445;22;20280;-89
2021/08/01 05:02:42;;;;;;;8.10;5.10;;;;;;;;;;6238607;22;20692;-90
2021/08/01 05:05:47;;;;;;;10.02;5.20;;;;;;;;;;6238796;23;20536;-90
2021/08/01 05:08:52;;;;;;;16.77;4.90;;;;;;;;;;6257000;22;20610;-89
2021/08/01 05:11:57;;;;;;;11.88;4.72;;;;;;;;;;6239678;23;20614;-88
2021/08/01 05:15:02;;;;;;;10.32;5.15;;;;;;;;;;6258590;23;20154;-90
2021/08/01 05:18:08;;;;;;;10.75;5.00;;;;;;;;;;6256351;23;20276;-90
2021/08/01 05:21:14;;;;;;;7.60;4.40;;;;;;;;;;6256887;23;20162;-88
2021/08/01 05:24:19;;;;;;;11.80;4.55;;;;;;;;;;6257705;22;20229;-89
2021/08/01 05:27:24;;;;;;;7.53;4.25;;;;;;;;;;6256732;23;20170;-87
2021/08/01 05:30:31;;;;;;;7.07;3.92;;;;;;;;;;6239038;23;20170;-88
2021/08/01 05:33:38;;;;;;;10.10;3.97;;;;;;;;;;6255193;23;20162;-89
2021/08/01 05:36:42;;;;;;;6.03;3.80;;;;;;;;;;6238220;22;20151;-88
2021/08/01 05:39:47;;;;;;;10.23;3.95;;;;;;;;;;6239682;22;20289;-88
2021/08/01 05:42:52;;;;;;;8.32;4.18;;;;;;;;;;6257047;22;20237;-88
2021/08/01 05:45:58;;;;;;;6.97;4.15;;;;;;;;;;6256968;23;20614;-87
2021/08/01 05:49:05;;;;;;;9.65;4.00;;;;;;;;;;6255212;23;20163;-87
2021/08/01 05:52:09;;;;;;;7.03;3.88;;;;;;;;;;6255315;22;20174;-88
2021/08/01 05:55:15;;;;;;;7.72;3.80;;;;;;;;;;6256101;23;20158;-89
2021/08/01 05:58:20;;;;;;;10.45;3.95;;;;;;;;;;6239202;22;20225;-87
2021/08/01 06:01:25;;;;;;;9.80;3.58;;;;;;;;;;6257506;23;20214;-89
2021/08/01 06:04:32;;;;;;;10.07;3.83;;;;;;;;;;6256846;23;20243;-89
2021/08/01 06:07:36;;;;;;;11.02;3.65;;;;;;;;;;6255774;23;20312;-89
2021/08/01 06:10:42;;;;;;;9.10;3.70;;;;;;;;;;6240403;23;20601;-88
2021/08/01 06:13:47;;;;;;;4.22;3.30;;;;;;;;;;6239859;23;20167;-88
2021/08/01 06:16:53;;;;;;;7.25;3.88;;;;;;;;;;6240014;23;20710;-88
2021/08/01 06:20:00;;;;;;;6.32;3.78;;;;;;;;;;6240093;23;20198;-88
2021/08/01 06:23:06;;;;;;;7.70;3.67;;;;;;;;;;6257885;23;20170;-88
2021/08/01 06:26:11;;;;;;;8.27;4.03;;;;;;;;;;6256141;23;20215;-88
2021/08/01 06:29:16;;;;;;;8.02;3.58;;;;;;;;;;6239440;23;20303;-88
2021/08/01 06:32:21;;;;;;;6.80;3.10;;;;;;;;;;6256753;23;20189;-89
2021/08/01 06:35:28;;;;;;;5.72;3.15;;;;;;;;;;6238529;23;20489;-88
2021/08/01 06:38:33;;;;;;;6.63;3.40;;;;;;;;;;6257616;23;20181;-89
2021/08/01 06:41:38;;;;;;;7.72;3.30;;;;;;;;;;6256657;22;20162;-88
2021/08/01 06:44:43;;;;;;;7.20;3.50;;;;;;;;;;6259887;23;20243;-89
2021/08/01 06:47:49;;;;;;;8.32;3.42;;;;;;;;;;6259687;23;20170;-88
2021/08/01 06:50:55;;;;;;;5.43;3.38;;;;;;;;;;6259829;23;20221;-90
2021/08/01 06:54:02;;;;;;;5.93;3.35;;;;;;;;;;6260841;23;20149;-88
2021/08/01 06:57:07;;;;;;;8.25;3.40;;;;;;;;;;6242136;23;20609;-88
2021/08/01 07:00:13;;;;;;;8.27;3.42;;;;;;;;;;6258041;22;20198;-89
2021/08/01 07:03:19;;;;;;;8.25;3.30;;;;;;;;;;6257801;22;20241;-88
2021/08/01 07:06:25;;;;;;;10.18;4.05;;;;;;;;;;6241148;23;20174;-89
2021/08/01 07:09:38;;;;;;;8.80;3.60;;;;;;;;;;6258390;23;20171;-89
2021/08/01 07:12:44;;;;;;;8.13;3.70;;;;;;;;;;6259457;22;20170;-87
2021/08/01 07:15:54;;;;;;;6.25;3.85;;;;;;;;;;6258364;23;20171;-89
2021/08/01 07:19:00;;;;;;;6.28;3.17;;;;;;;;;;6259692;23;20237;-87
2021/08/01 07:22:06;;;;;;;6.90;3.05;;;;;;;;;;6260417;23;20169;-90
2021/08/01 07:25:12;;;;;;;7.10;3.33;;;;;;;;;;6258935;23;20175;-89
2021/08/01 07:28:17;;;;;;;6.55;3.05;;;;;;;;;;6240917;23;20677;-89
2021/08/01 07:31:22;;;;;;;7.53;3.65;;;;;;;;;;6241642;23;20174;-88
2021/08/01 07:34:27;;;;;;;9.30;3.25;;;;;;;;;;6260042;22;20162;-88
2021/08/01 07:37:35;;;;;;;8.55;3.60;;;;;;;;;;6260246;23;20277;-89
2021/08/01 07:40:40;;;;;;;9.00;3.33;;;;;;;;;;6259703;22;20506;-89
2021/08/01 07:43:45;;;;;;;11.60;3.40;;;;;;;;;;6260077;23;20221;-88
2021/08/01 07:46:50;;;;;;;5.30;2.75;;;;;;;;;;6260232;22;20170;-89
2021/08/01 07:49:55;;;;;;;6.97;3.30;;;;;;;;;;6260401;23;20166;-88
2021/08/01 07:53:02;;;;;;;8.25;3.20;;;;;;;;;;6242480;23;20174;-87
2021/08/01 07:56:08;;;;;;;7.60;3.20;;;;;;;;;;6257243;23;20178;-87
2021/08/01 07:59:13;;;;;;;6.88;2.50;;;;;;;;;;6258404;22;20178;-89
2021/08/01 08:02:19;;;;;;;8.07;2.40;;;;;;;;;;6259270;22;20170;-88
2021/08/01 08:05:25;;;;;;;6.03;2.20;;;;;;;;;;6259665;22;20290;-87
2021/08/01 08:08:33;;;;;;;4.32;1.98;;;;;;;;;;6261295;23;20174;-88
2021/08/01 08:11:38;;;;;;;4.13;2.13;;;;;;;;;;6239406;23;20546;-88
2021/08/01 08:14:43;;;;;;;2.75;1.80;;;;;;;;;;6258319;22;20198;-88
2021/08/01 08:17:48;;;;;;;3.53;1.95;;;;;;;;;;6257274;22;20678;-88
2021/08/01 08:20:54;;;;;;;5.45;1.70;;;;;;;;;;6240347;23;20170;-88
2021/08/01 08:24:01;;;;;;;7.47;1.80;;;;;;;;;;6260573;23;20169;-89
2021/08/01 08:27:06;;;;;;;3.13;2.38;;;;;;;;;;6258664;23;20170;-88
2021/08/01 08:30:14;;;;;;;5.10;1.98;;;;;;;;;;6259775;22;20170;-88
2021/08/01 08:33:19;;;;;;;4.57;1.90;;;;;;;;;;6239479;22;20544;-89
2021/08/01 08:36:24;;;;;;;4.43;2.40;;;;;;;;;;6239847;23;20260;-89
2021/08/01 08:39:31;;;;;;;5.55;2.00;;;;;;;;;;6258428;23;20206;-88
2021/08/01 08:42:36;;;;;;;3.47;1.90;;;;;;;;;;6259795;22;20189;-88
2021/08/01 08:45:46;;;;;;;2.83;1.70;;;;;;;;;;6260368;23;20174;-88
2021/08/01 08:48:53;;;;;;;5.60;1.95;;;;;;;;;;6260622;22;20166;-89
2021/08/01 08:51:59;;;;;;;4.45;1.90;;;;;;;;;;6261336;22;20169;-88
2021/08/01 08:55:23;;;;;;;5.68;2.08;;;;;;;;;;6261412;23;20166;-90
2021/08/01 08:58:31;;;;;;;4.85;2.00;;;;;;;;;;6238366;23;20246;-90
2021/08/01 09:01:38;;;;;;;3.33;1.90;;;;;;;;;;6257575;22;20151;-87
2021/08/01 09:04:46;;;;;;;3.40;2.05;;;;;;;;;;6256460;22;20162;-89
2021/08/01 09:07:51;;;;;;;7.43;2.08;;;;;;;;;;6256359;23;20194;-88
2021/08/01 09:10:58;;;;;;;3.05;1.75;;;;;;;;;;6256069;23;20171;-89
2021/08/01 09:14:04;;;;;;;4.03;2.10;;;;;;;;;;6254554;23;20174;-86
2021/08/01 09:17:12;;;;;;;4.13;2.10;;;;;;;;;;6257424;23;20169;-89
2021/08/01 09:20:18;;;;;;;4.68;1.70;;;;;;;;;;6243593;22;20198;-88
2021/08/01 09:23:24;;;;;;;5.57;1.98;;;;;;;;;;6257441;23;20157;-88
2021/08/01 09:26:44;;;;;;;3.28;1.67;;;;;;;;;;6258210;23;20182;-88
2021/08/01 09:29:50;;;;;;;1.75;1.38;;;;;;;;;;6257780;23;20489;-89
2021/08/01 09:32:55;;;;;;;2.28;1.38;;;;;;;;;;6256728;22;20179;-87
2021/08/01 09:36:10;;;;;;;2.65;1.40;;;;;;;;;;6239962;23;20174;-89
2021/08/01 09:39:15;;;;;;;1.63;1.30;;;;;;;;;;6239201;22;20178;-89
2021/08/01 09:42:22;;;;;;;2.75;1.08;;;;;;;;;;6239505;22;20167;-89
2021/08/01 09:45:27;;;;;;;2.00;1.30;;;;;;;;;;6256479;22;20175;-91
2021/08/01 09:48:32;;;;;;;3.10;1.15;;;;;;;;;;6258914;22;20166;-88
2021/08/01 09:51:41;;;;;;;3.88;1.05;;;;;;;;;;6242847;22;20174;-89
2021/08/01 09:54:47;;;;;;;2.42;0.90;;;;;;;;;;6260309;22;20165;-90
2021/08/01 09:57:57;;;;;;;2.17;1.00;;;;;;;;;;6258482;23;20645;-89
2021/08/01 10:01:02;;;;;;;3.08;1.67;;;;;;;;;;6257825;23;20233;-88
2021/08/01 10:04:22;;;;;;;3.25;1.20;;;;;;;;;;6263404;23;20150;-89
2021/08/01 10:07:27;;;;;;;5.28;1.35;;;;;;;;;;6260910;23;20190;-87
2021/08/01 10:10:33;;;;;;;1.95;1.10;;;;;;;;;;6259930;22;20170;-88
2021/08/01 10:13:39;;;;;;;2.88;1.13;;;;;;;;;;6245569;23;20492;-88
2021/08/01 10:16:45;;;;;;;2.05;1.00;;;;;;;;;;6265554;23;20181;-87
2021/08/01 10:19:50;;;;;;;1.27;1.13;;;;;;;;;;6249392;23;20222;-88
2021/08/01 10:22:56;;;;;;;1.60;0.90;;;;;;;;;;6246426;22;20163;-90
2021/08/01 10:26:03;;;;;;;0.80;0.80;;;;;;;;;;6262041;23;20278;-89
2021/08/01 10:29:11;;;;;;;1.63;1.00;;;;;;;;;;6260994;23;20215;-87
2021/08/01 10:32:20;;;;;;;2.35;0.85;;;;;;;;;;6264440;23;20162;-87
2021/08/01 10:35:26;;;;;;;3.80;1.15;;;;;;;;;;6261526;23;20146;-88
2021/08/01 10:38:32;;;;;;;2.42;0.93;;;;;;;;;;6240601;23;20221;-89
2021/08/01 10:41:38;;;;;;;2.35;0.80;;;;;;;;;;6242328;23;20209;-88
2021/08/01 10:44:44;;;;;;;2.03;0.90;;;;;;;;;;6241999;23;20242;-88
2021/08/01 10:47:51;;;;;;;2.83;1.20;;;;;;;;;;6261589;23;20174;-89
2021/08/01 10:51:01;;;;;;;4.20;1.00;;;;;;;;;;6243870;23;20226;-89
2021/08/01 10:54:33;;;;;;;1.98;1.05;;;;;;;;;;6241489;23;20175;-89
2021/08/01 10:57:39;;;;;;;1.10;0.90;;;;;;;;;;6195032;23;20567;-89
2021/08/01 11:01:05;;;;;;;1.60;1.10;;;;;;;;;;6259698;23;20190;-88
2021/08/01 11:04:32;;;;;;;1.63;1.20;;;;;;;;;;6241438;23;20170;-88
2021/08/01 11:07:59;;;;;;;1.30;1.15;;;;;;;;;;6259706;23;20272;-90
2021/08/01 11:11:15;;;;;;;2.55;1.23;;;;;;;;;;6256822;22;20243;-90
2021/08/01 11:14:39;;;;;;;1.55;1.20;;;;;;;;;;6243788;23;20174;-90
2021/08/01 11:18:04;;;;;;;2.30;1.40;;;;;;;;;;6245190;22;20239;-88
2021/08/01 11:21:11;;;;;;;2.28;1.40;;;;;;;;;;6260356;23;20626;-90
2021/08/01 11:24:16;;;;;;;2.95;1.50;;;;;;;;;;6259445;23;20202;-89
2021/08/01 11:27:22;;;;;;;3.47;1.35;;;;;;;;;;6244847;22;20170;-90
2021/08/01 11:30:28;;;;;;;1.60;1.08;;;;;;;;;;6259132;23;20186;-90
2021/08/01 11:33:34;;;;;;;2.05;0.90;;;;;;;;;;6258039;23;20225;-89
2021/08/01 11:36:40;;;;;;;2.55;1.10;;;;;;;;;;6258373;23;20237;-92
2021/08/01 11:39:53;;;;;;;6.38;1.75;;;;;;;;;;6260335;23;20297;-89
2021/08/01 11:43:08;;;;;;;1.08;0.70;;;;;;;;;;6239910;22;20166;-89
2021/08/01 11:46:13;;;;;;;1.25;0.63;;;;;;;;;;6243713;23;20174;-88
2021/08/01 11:49:21;;;;;;;0.82;0.60;;;;;;;;;;6261926;23;20227;-90
2021/08/01 11:52:43;;;;;;;0.98;0.68;;;;;;;;;;6263168;23;20267;-89
2021/08/01 11:55:51;;;;;;;3.95;1.15;;;;;;;;;;6259090;23;20171;-90
2021/08/01 11:58:56;;;;;;;0.82;0.55;;;;;;;;;;6258728;23;20297;-88
2021/08/01 12:02:03;;;;;;;0.70;0.60;;;;;;;;;;6261851;23;20177;-89
2021/08/01 12:05:09;;;;;;;1.25;0.80;;;;;;;;;;6260408;23;20217;-89
2021/08/01 12:08:29;;;;;;;2.85;1.35;;;;;;;;;;6263114;23;20239;-88
2021/08/01 12:11:37;;;;;;;1.65;0.70;;;;;;;;;;6263115;22;20242;-89
2021/08/01 12:14:45;;;;;;;2.95;0.80;;;;;;;;;;6263305;22;20215;-90
2021/08/01 12:17:59;;;;;;;2.30;0.70;;;;;;;;;;6243659;23;20170;-90
2021/08/01 12:21:26;;;;;;;1.60;1.08;;;;;;;;;;6242404;22;20277;-88
2021/08/01 12:24:33;;;;;;;2.85;0.90;;;;;;;;;;6260319;23;20182;-88
2021/08/01 12:27:40;;;;;;;1.10;0.70;;;;;;;;;;6262852;23;20301;-88
2021/08/01 12:30:46;;;;;;;1.23;0.90;;;;;;;;;;6243233;23;20166;-88
2021/08/01 12:33:52;;;;;;;2.45;0.98;;;;;;;;;;6260773;22;20227;-90
2021/08/01 12:37:06;;;;;;;2.33;0.90;;;;;;;;;;6245681;22;20235;-90
2021/08/01 12:40:12;;;;;;;1.35;0.90;;;;;;;;;;6242255;23;20190;-90
2021/08/01 12:43:25;;;;;;;1.13;0.80;;;;;;;;;;6244332;23;20178;-90
2021/08/01 12:46:33;;;;;;;6.78;0.90;;;;;;;;;;6261529;23;20186;-89
2021/08/01 12:49:38;;;;;;;1.83;1.20;;;;;;;;;;6260453;22;20158;-92
2021/08/01 12:52:43;;;;;;;2.28;1.10;;;;;;;;;;6225726;22;20171;-90
2021/08/01 12:55:53;;;;;;;2.25;1.02;;;;;;;;;;6261202;23;20166;-90
2021/08/01 12:59:11;;;;;;;4.20;1.05;;;;;;;;;;6241625;23;20221;-90
2021/08/01 13:02:16;;;;;;;1.23;0.82;;;;;;;;;;6241306;23;20206;-90
2021/08/01 13:05:23;;;;;;;1.48;0.90;;;;;;;;;;6258944;23;20170;-90
2021/08/01 13:08:38;;;;;;;4.50;1.58;;;;;;;;;;6260700;22;20151;-88
2021/08/01 13:11:43;;;;;;;2.05;1.00;;;;;;;;;;6260872;22;20166;-90
2021/08/01 13:14:50;;;;;;;1.20;1.05;;;;;;;;;;6263709;22;20166;-89
2021/08/01 13:17:56;;;;;;;6.00;1.55;;;;;;;;;;6261308;23;20202;-89
2021/08/01 13:21:14;;;;;;;1.83;1.30;;;;;;;;;;6260381;23;20240;-90
2021/08/01 13:24:20;;;;;;;3.38;1.65;;;;;;;;;;6261740;23;20167;-87
2021/08/01 13:27:26;;;;;;;2.83;1.60;;;;;;;;;;6246786;23;20167;-91
2021/08/01 13:30:37;;;;;;;2.80;1.73;;;;;;;;;;6263934;22;20290;-91
2021/08/01 13:33:53;;;;;;;3.75;2.35;;;;;;;;;;6263383;23;20174;-90
2021/08/01 13:36:59;;;;;;;3.38;1.98;;;;;;;;;;6261376;23;20174;-89
2021/08/01 16:59:42;;;;;;;3.17;2.00;;;;;;;;;;6245536;22;20421;-90
2021/08/01 17:02:53;;;;;;;2.60;1.50;;;;;;;;;;6275665;22;20153;-89
2021/08/01 17:06:03;;;;;;;4.18;2.15;;;;;;;;;;6276330;22;20162;-86
2021/08/01 17:09:12;;;;;;;4.53;1.85;;;;;;;;;;6276677;22;20186;-89
2021/08/01 17:12:17;;;;;;;5.15;3.30;;;;;;;;;;6274877;22;20173;-87
2021/08/01 17:15:24;;;;;;;5.35;3.17;;;;;;;;;;6273962;22;20604;-89
2021/08/01 17:18:30;;;;;;;5.45;2.40;;;;;;;;;;6273281;22;20169;-89
2021/08/01 17:21:38;;;;;;;4.85;2.10;;;;;;;;;;6272969;22;20217;-87
2021/08/01 17:24:43;;;;;;;3.13;2.00;;;;;;;;;;6272781;22;20166;-88
2021/08/01 17:27:49;;;;;;;6.53;1.80;;;;;;;;;;6272384;22;20170;-90
2021/08/01 17:30:59;;;;;;;6.93;2.30;;;;;;;;;;6271111;22;20296;-89
2021/08/01 17:34:05;;;;;;;4.88;1.80;;;;;;;;;;6273920;22;20150;-88
2021/08/01 17:37:11;;;;;;;3.53;2.00;;;;;;;;;;6272864;22;20165;-88
2021/08/01 17:40:23;;;;;;;3.58;2.00;;;;;;;;;;6273419;22;20165;-89
2021/08/01 17:43:29;;;;;;;4.78;1.80;;;;;;;;;;6272983;22;20662;-88
2021/08/01 17:46:38;;;;;;;2.28;1.85;;;;;;;;;;6272461;22;20165;-87
2021/08/01 17:49:47;;;;;;;3.17;1.98;;;;;;;;;;6274418;22;20185;-88
2021/08/01 17:52:52;;;;;;;8.60;5.10;;;;;;;;;;6272544;22;20170;-87
2021/08/01 17:55:58;;;;;;;4.15;2.25;;;;;;;;;;6273070;22;20166;-86
2021/08/01 17:59:04;;;;;;;3.47;1.90;;;;;;;;;;6271123;22;20596;-87
2021/08/01 18:02:10;;;;;;;4.60;2.08;;;;;;;;;;6269974;22;20185;-88
2021/08/01 18:05:17;;;;;;;2.70;1.75;;;;;;;;;;6270031;22;20169;-88
2021/08/01 18:08:26;;;;;;;6.45;1.85;;;;;;;;;;6269310;22;20173;-88
2021/08/01 18:11:31;;;;;;;3.47;1.88;;;;;;;;;;6270311;22;20173;-88
2021/08/01 18:14:37;;;;;;;3.67;1.90;;;;;;;;;;6268540;22;20170;-88
2021/08/01 18:17:45;;;;;;;3.33;1.90;;;;;;;;;;6269985;22;20153;-87
2021/08/01 18:20:54;;;;;;;5.65;2.10;;;;;;;;;;6271507;22;20197;-88
2021/08/01 18:23:59;;;;;;;5.13;2.40;;;;;;;;;;6269831;22;20174;-87
2021/08/01 18:27:05;;;;;;;7.10;2.55;;;;;;;;;;6270591;22;20624;-88
2021/08/01 18:30:13;;;;;;;2.20;1.70;;;;;;;;;;6270445;22;20175;-89
2021/08/01 18:33:20;;;;;;;4.22;2.40;;;;;;;;;;6272175;22;20149;-89
2021/08/01 18:36:26;;;;;;;3.55;2.10;;;;;;;;;;6270340;22;20628;-88
2021/08/01 18:39:31;;;;;;;3.35;2.13;;;;;;;;;;6271116;22;20173;-88
2021/08/01 18:42:39;;;;;;;5.57;2.38;;;;;;;;;;6269098;22;20194;-89
2021/08/01 18:45:44;;;;;;;3.25;2.30;;;;;;;;;;6269837;22;20248;-88
2021/08/01 18:48:51;;;;;;;6.15;2.60;;;;;;;;;;6269853;22;20170;-87
2021/08/01 18:51:57;;;;;;;4.38;2.55;;;;;;;;;;6250748;22;20185;-87
2021/08/01 18:55:04;;;;;;;3.17;2.13;;;;;;;;;;6270623;22;20177;-88
2021/08/01 18:58:09;;;;;;;5.88;2.28;;;;;;;;;;6267580;22;20173;-89
2021/08/01 19:01:15;;;;;;;5.53;2.80;;;;;;;;;;6270626;22;20206;-88
2021/08/01 19:04:22;;;;;;;4.72;2.38;;;;;;;;;;6269231;22;20193;-90
2021/08/01 19:07:28;;;;;;;4.00;2.20;;;;;;;;;;6268521;22;20205;-88
2021/08/01 19:10:34;;;;;;;5.43;2.47;;;;;;;;;;6269685;22;20165;-87
2021/08/01 19:13:39;;;;;;;6.63;2.40;;;;;;;;;;6270410;22;20200;-88
2021/08/01 19:16:52;;;;;;;3.60;2.20;;;;;;;;;;6267561;22;20166;-88
2021/08/01 19:20:04;;;;;;;5.07;2.35;;;;;;;;;;6269962;22;20173;-88
2021/08/01 19:23:14;;;;;;;4.78;2.70;;;;;;;;;;6269249;22;20166;-84
2021/08/01 19:26:20;;;;;;;9.57;3.45;;;;;;;;;;6268791;22;20171;-87
2021/08/01 19:29:26;;;;;;;4.18;2.22;;;;;;;;;;6268872;22;20185;-87
2021/08/01 19:32:38;;;;;;;3.55;2.20;;;;;;;;;;6271471;22;20165;-87
2021/08/01 19:35:47;;;;;;;4.95;2.40;;;;;;;;;;6271111;22;20174;-88
2021/08/01 19:38:52;;;;;;;3.97;2.20;;;;;;;;;;6268967;22;20217;-88
2021/08/01 19:41:58;;;;;;;6.18;2.60;;;;;;;;;;6268657;22;20197;-88
2021/08/01 19:45:04;;;;;;;9.05;3.60;;;;;;;;;;6270252;22;20181;-89
2021/08/01 19:48:09;;;;;;;4.32;2.58;;;;;;;;;;6269169;22;20233;-87
2021/08/01 19:51:16;;;;;;;4.55;2.00;;;;;;;;;;6268456;22;20165;-88
2021/08/01 19:54:22;;;;;;;6.97;2.25;;;;;;;;;;6269830;22;20169;-88
2021/08/01 19:57:27;;;;;;;3.75;2.10;;;;;;;;;;6270571;22;20170;-88
2021/08/01 20:00:32;;;;;;;3.72;2.25;;;;;;;;;;6289345;22;20193;-89
2021/08/01 20:03:37;;;;;;;3.50;2.55;;;;;;;;;;6268583;22;20166;-89
2021/08/01 20:06:44;;;;;;;4.95;2.70;;;;;;;;;;6267461;22;20609;-87
2021/08/01 20:09:49;;;;;;;3.80;2.47;;;;;;;;;;6267896;22;20162;-89
2021/08/01 20:12:54;;;;;;;2.85;1.80;;;;;;;;;;6269786;22;20164;-88
2021/08/01 20:15:59;;;;;;;6.60;2.70;;;;;;;;;;6268770;22;20228;-87
2021/08/01 20:19:05;;;;;;;2.95;2.10;;;;;;;;;;6270268;22;20169;-87
2021/08/01 20:22:11;;;;;;;6.68;2.65;;;;;;;;;;6271662;22;20189;-90
2021/08/01 20:25:17;;;;;;;7.78;2.88;;;;;;;;;;6270731;22;20643;-89
2021/08/01 20:28:22;;;;;;;5.80;2.60;;;;;;;;;;6272628;22;20173;-87
2021/08/01 20:31:27;;;;;;;6.55;2.55;;;;;;;;;;6271601;22;20230;-89
2021/08/01 20:34:33;;;;;;;4.82;2.90;;;;;;;;;;6272199;22;20284;-89
2021/08/01 20:37:40;;;;;;;4.97;2.55;;;;;;;;;;6274141;22;20680;-89
2021/08/01 20:40:45;;;;;;;6.07;3.10;;;;;;;;;;6293315;22;20166;-90
2021/08/01 20:43:50;;;;;;;5.35;2.95;;;;;;;;;;6271436;22;20181;-88
2021/08/01 20:46:56;;;;;;;5.13;2.90;;;;;;;;;;6288914;22;20192;-89
2021/08/01 20:50:03;;;;;;;3.42;2.15;;;;;;;;;;6272643;22;20174;-89
2021/08/01 20:53:09;;;;;;;4.88;3.03;;;;;;;;;;6273519;22;20204;-89
2021/08/01 20:56:15;;;;;;;8.05;2.90;;;;;;;;;;6271915;22;20169;-90
2021/08/01 20:59:20;;;;;;;5.07;2.78;;;;;;;;;;6270096;22;20166;-90
2021/08/01 21:02:26;;;;;;;3.85;2.80;;;;;;;;;;6272356;22;20194;-90
2021/08/01 21:05:31;;;;;;;7.15;3.50;;;;;;;;;;6272751;22;20217;-89
2021/08/01 21:08:41;;;;;;;10.85;4.57;;;;;;;;;;6273456;22;20177;-87
2021/08/01 21:11:47;;;;;;;5.45;3.00;;;;;;;;;;6272578;22;20242;-88
2021/08/01 21:14:53;;;;;;;6.93;3.50;;;;;;;;;;6272883;22;20170;-89
2021/08/01 21:17:58;;;;;;;7.00;3.28;;;;;;;;;;6270054;22;20153;-89
2021/08/01 21:21:03;;;;;;;8.38;3.72;;;;;;;;;;6270227;22;20169;-89
2021/08/01 21:24:10;;;;;;;7.55;3.50;;;;;;;;;;6270022;22;20285;-89
2021/08/01 21:27:16;;;;;;;7.95;3.92;;;;;;;;;;6271751;22;20613;-88
2021/08/01 21:30:22;;;;;;;8.35;3.42;;;;;;;;;;6289648;22;20165;-89
2021/08/01 21:33:27;;;;;;;7.95;4.20;;;;;;;;;;6272393;22;20170;-87
2021/08/01 21:36:32;;;;;;;5.22;3.60;;;;;;;;;;6272006;22;20197;-87
2021/08/01 21:39:38;;;;;;;6.13;3.50;;;;;;;;;;6270172;22;20675;-88
2021/08/01 21:42:43;;;;;;;4.50;3.17;;;;;;;;;;6270119;22;20292;-88
2021/08/01 21:45:49;;;;;;;8.68;3.75;;;;;;;;;;6269039;22;20213;-88
2021/08/01 21:48:54;;;;;;;6.97;3.13;;;;;;;;;;6268242;22;20169;-89
2021/08/01 21:51:59;;;;;;;7.15;3.72;;;;;;;;;;6269543;22;20167;-89
2021/08/01 21:55:07;;;;;;;5.93;3.75;;;;;;;;;;6270325;22;20213;-88
2021/08/01 21:58:12;;;;;;;6.57;3.85;;;;;;;;;;6268504;22;20583;-88
2021/08/01 22:01:24;;;;;;;5.18;3.60;;;;;;;;;;6266268;22;20189;-88
2021/08/01 22:04:33;;;;;;;6.93;3.83;;;;;;;;;;6267637;22;20200;-88